Time;durP1;ratioP1;P1;durP2;ratioP2;P2;SDS_P1;SDS_P2;PMS_P1;PMS_P2;Temp;Humidity;BMP_temperature;BMP_pressure;BME280_temperature;BME280_humidity;BME280_pressure;Samples;Min_cycle;Max_cycle;Signal;HPM_P1;HPM_P2
2024/01/28 00:01:36;;;;;;;8.20;6.17;;;;;;;;;;5056683;28;20060;-57
2024/01/28 00:04:02;;;;;;;7.53;6.63;;;;;;;;;;5056007;28;20367;-56
2024/01/28 00:06:28;;;;;;;15.00;7.17;;;;;;;;;;5056662;28;20041;-56
2024/01/28 00:08:54;;;;;;;11.53;6.77;;;;;;;;;;5056690;28;20025;-55
2024/01/28 00:11:20;;;;;;;14.00;6.87;;;;;;;;;;5056614;28;20021;-56
2024/01/28 00:13:46;;;;;;;11.63;6.93;;;;;;;;;;5056092;28;20017;-56
2024/01/28 00:16:15;;;;;;;9.40;7.05;;;;;;;;;;5055884;28;20029;-56
2024/01/28 00:18:42;;;;;;;10.23;7.20;;;;;;;;;;5055463;28;20036;-56
2024/01/28 00:21:08;;;;;;;12.65;6.88;;;;;;;;;;5055329;28;20068;-56
2024/01/28 00:23:34;;;;;;;11.27;7.40;;;;;;;;;;5055550;28;20052;-56
2024/01/28 00:26:01;;;;;;;12.27;7.60;;;;;;;;;;5054966;28;20053;-55
2024/01/28 00:28:28;;;;;;;10.18;6.30;;;;;;;;;;5056023;28;20040;-55
2024/01/28 00:30:53;;;;;;;16.80;7.00;;;;;;;;;;5055109;28;20574;-56
2024/01/28 00:33:19;;;;;;;9.37;6.90;;;;;;;;;;5055841;28;20060;-54
2024/01/28 00:35:46;;;;;;;14.77;7.90;;;;;;;;;;5054975;28;20018;-55
2024/01/28 00:38:12;;;;;;;13.70;7.35;;;;;;;;;;5055780;28;20037;-55
2024/01/28 00:40:38;;;;;;;12.43;6.72;;;;;;;;;;5055742;28;20028;-53
2024/01/28 00:43:04;;;;;;;10.85;6.07;;;;;;;;;;5055448;28;20323;-56
2024/01/28 00:45:31;;;;;;;13.77;6.60;;;;;;;;;;5055138;28;20029;-56
2024/01/28 00:47:58;;;;;;;10.77;6.13;;;;;;;;;;5055931;28;20029;-56
2024/01/28 00:50:24;;;;;;;9.85;7.10;;;;;;;;;;5055039;28;20112;-55
2024/01/28 00:52:50;;;;;;;14.90;7.40;;;;;;;;;;5054975;28;20052;-54
2024/01/28 00:55:16;;;;;;;7.23;5.97;;;;;;;;;;5055285;28;20398;-55
2024/01/28 00:57:42;;;;;;;9.30;6.15;;;;;;;;;;5055585;28;20025;-52
2024/01/28 01:00:08;;;;;;;14.87;7.27;;;;;;;;;;5055123;28;20175;-55
2024/01/28 01:02:34;;;;;;;7.70;6.50;;;;;;;;;;5055296;28;20376;-53
2024/01/28 01:05:00;;;;;;;14.75;6.72;;;;;;;;;;5055344;28;20025;-54
2024/01/28 01:07:26;;;;;;;12.20;7.57;;;;;;;;;;5055029;28;20033;-56
2024/01/28 01:09:52;;;;;;;9.00;6.63;;;;;;;;;;5055289;28;20418;-54
2024/01/28 01:12:18;;;;;;;9.23;5.88;;;;;;;;;;5054613;28;20486;-54
2024/01/28 01:14:44;;;;;;;11.30;6.13;;;;;;;;;;5054256;28;20546;-56
2024/01/28 01:17:10;;;;;;;8.40;6.05;;;;;;;;;;5054827;28;20120;-56
2024/01/28 01:19:36;;;;;;;9.97;6.53;;;;;;;;;;5054522;28;20036;-56
2024/01/28 01:22:03;;;;;;;10.57;7.20;;;;;;;;;;5054157;28;20087;-56
2024/01/28 01:24:29;;;;;;;11.30;7.17;;;;;;;;;;5054459;28;20082;-54
2024/01/28 01:26:55;;;;;;;8.90;6.20;;;;;;;;;;5054376;28;20033;-55
2024/01/28 01:29:21;;;;;;;9.47;6.43;;;;;;;;;;5054695;28;20032;-56
2024/01/28 01:31:47;;;;;;;7.90;6.60;;;;;;;;;;5054323;28;20378;-52
2024/01/28 01:34:13;;;;;;;8.00;5.15;;;;;;;;;;5054090;28;20020;-55
2024/01/28 01:36:43;;;;;;;11.50;5.60;;;;;;;;;;5053205;28;20060;-56
2024/01/28 01:39:10;;;;;;;10.83;6.83;;;;;;;;;;5054178;28;20029;-55
2024/01/28 01:41:37;;;;;;;8.05;6.45;;;;;;;;;;5053909;28;20033;-56
2024/01/28 01:44:02;;;;;;;7.20;6.07;;;;;;;;;;5053831;28;20482;-54
2024/01/28 01:46:29;;;;;;;9.40;6.05;;;;;;;;;;5054608;28;20029;-55
2024/01/28 01:48:56;;;;;;;9.03;6.13;;;;;;;;;;5054884;28;20029;-55
2024/01/28 01:51:23;;;;;;;8.63;5.57;;;;;;;;;;5053675;28;20477;-55
2024/01/28 01:53:49;;;;;;;9.30;7.00;;;;;;;;;;5054455;28;20352;-56
2024/01/28 01:56:15;;;;;;;8.40;6.30;;;;;;;;;;5053465;28;20048;-54
2024/01/28 01:58:42;;;;;;;9.40;6.67;;;;;;;;;;5054750;28;20356;-54
2024/01/28 02:01:08;;;;;;;8.00;5.93;;;;;;;;;;5054099;28;20032;-56
2024/01/28 02:03:34;;;;;;;11.27;6.60;;;;;;;;;;5054175;28;20059;-56
2024/01/28 02:06:00;;;;;;;14.20;6.53;;;;;;;;;;5053864;28;20060;-54
2024/01/28 02:08:26;;;;;;;12.87;7.20;;;;;;;;;;5053802;28;20047;-55
2024/01/28 02:10:52;;;;;;;9.70;6.80;;;;;;;;;;5053805;28;20051;-55
2024/01/28 02:13:18;;;;;;;13.17;7.40;;;;;;;;;;5053886;28;20025;-56
2024/01/28 02:15:44;;;;;;;9.93;6.17;;;;;;;;;;5053722;28;20021;-54
2024/01/28 02:18:10;;;;;;;11.35;6.93;;;;;;;;;;5054197;28;20171;-56
2024/01/28 02:20:36;;;;;;;10.30;6.93;;;;;;;;;;5054231;28;20028;-56
2024/01/28 02:23:04;;;;;;;9.83;6.70;;;;;;;;;;5053608;28;20111;-57
2024/01/28 02:25:29;;;;;;;9.23;6.77;;;;;;;;;;5053620;28;20021;-54
2024/01/28 02:27:55;;;;;;;15.93;7.53;;;;;;;;;;5054128;28;20473;-56
2024/01/28 02:30:21;;;;;;;11.13;6.10;;;;;;;;;;5053553;28;20052;-55
2024/01/28 02:32:51;;;;;;;7.13;6.35;;;;;;;;;;5053527;28;20078;-56
2024/01/28 02:35:17;;;;;;;9.02;7.00;;;;;;;;;;5053539;28;20466;-56
2024/01/28 02:37:43;;;;;;;11.27;7.70;;;;;;;;;;5054011;28;20044;-54
2024/01/28 02:40:10;;;;;;;8.10;6.97;;;;;;;;;;5053782;28;20021;-54
2024/01/28 02:42:36;;;;;;;9.43;6.77;;;;;;;;;;5053435;28;20047;-54
2024/01/28 02:45:02;;;;;;;9.33;6.27;;;;;;;;;;5053511;28;20079;-51
2024/01/28 02:47:28;;;;;;;12.80;6.83;;;;;;;;;;5052811;28;20433;-52
2024/01/28 02:49:54;;;;;;;8.27;7.07;;;;;;;;;;5057372;28;20025;-55
2024/01/28 02:52:19;;;;;;;11.37;7.03;;;;;;;;;;5057609;28;20059;-55
2024/01/28 02:54:46;;;;;;;10.63;6.97;;;;;;;;;;5057210;28;20045;-54
2024/01/28 02:57:12;;;;;;;10.73;6.30;;;;;;;;;;5057230;28;20096;-52
2024/01/28 02:59:38;;;;;;;8.67;6.33;;;;;;;;;;5058074;28;20025;-55
2024/01/28 03:02:04;;;;;;;8.63;6.83;;;;;;;;;;5057210;28;20031;-55
2024/01/28 03:04:30;;;;;;;8.77;6.03;;;;;;;;;;5057096;28;20461;-56
2024/01/28 03:06:55;;;;;;;9.37;6.57;;;;;;;;;;5057083;28;20108;-52
2024/01/28 03:09:21;;;;;;;11.20;7.10;;;;;;;;;;5057565;28;20028;-52
2024/01/28 03:11:47;;;;;;;9.73;7.17;;;;;;;;;;5057522;28;20021;-53
2024/01/28 03:14:13;;;;;;;13.33;8.73;;;;;;;;;;5056914;28;20025;-51
2024/01/28 03:16:39;;;;;;;13.73;7.20;;;;;;;;;;5057329;28;20059;-52
2024/01/28 03:19:05;;;;;;;9.40;6.57;;;;;;;;;;5057457;28;20439;-51
2024/01/28 03:21:32;;;;;;;12.83;8.10;;;;;;;;;;5057042;28;20033;-53
2024/01/28 03:23:58;;;;;;;17.27;7.50;;;;;;;;;;5056731;28;20029;-53
2024/01/28 03:26:24;;;;;;;13.57;7.13;;;;;;;;;;5056860;28;20090;-52
2024/01/28 03:28:50;;;;;;;9.37;7.00;;;;;;;;;;5056653;28;20029;-53
2024/01/28 03:31:18;;;;;;;9.43;7.13;;;;;;;;;;5056598;28;20062;-51
2024/01/28 03:33:44;;;;;;;12.93;8.93;;;;;;;;;;5056538;28;20025;-55
2024/01/28 03:36:11;;;;;;;11.67;7.87;;;;;;;;;;5056404;28;20032;-51
2024/01/28 03:38:39;;;;;;;12.23;8.00;;;;;;;;;;5056197;28;20063;-51
2024/01/28 03:41:05;;;;;;;9.60;7.77;;;;;;;;;;5056344;28;20029;-50
2024/01/28 03:43:31;;;;;;;11.70;7.93;;;;;;;;;;5056295;28;20175;-54
2024/01/28 03:45:57;;;;;;;13.30;7.77;;;;;;;;;;5056783;28;20057;-51
2024/01/28 03:48:23;;;;;;;12.23;6.67;;;;;;;;;;5056814;28;20056;-54
2024/01/28 03:50:49;;;;;;;13.60;7.80;;;;;;;;;;5056723;28;20029;-50
2024/01/28 03:53:15;;;;;;;18.40;7.37;;;;;;;;;;5056168;28;20433;-51
2024/01/28 03:55:43;;;;;;;11.27;8.23;;;;;;;;;;5055827;28;20041;-52
2024/01/28 03:58:10;;;;;;;12.23;7.60;;;;;;;;;;5056236;28;20033;-58
2024/01/28 04:00:37;;;;;;;10.47;8.27;;;;;;;;;;5055526;28;20029;-57
2024/01/28 04:03:03;;;;;;;10.93;7.32;;;;;;;;;;5056978;28;20071;-57
2024/01/28 04:05:29;;;;;;;11.47;8.03;;;;;;;;;;5055850;28;20025;-57
2024/01/28 04:07:55;;;;;;;9.37;7.50;;;;;;;;;;5056792;28;20068;-55
2024/01/28 04:10:22;;;;;;;11.73;7.43;;;;;;;;;;5055927;28;20041;-56
2024/01/28 04:12:48;;;;;;;14.13;8.63;;;;;;;;;;5056571;28;20100;-56
2024/01/28 04:15:14;;;;;;;14.77;8.27;;;;;;;;;;5056375;28;20435;-53
2024/01/28 04:17:40;;;;;;;13.43;8.47;;;;;;;;;;5056157;28;20033;-56
2024/01/28 04:20:08;;;;;;;11.70;7.83;;;;;;;;;;5055702;28;20032;-56
2024/01/28 04:22:34;;;;;;;10.60;8.30;;;;;;;;;;5056442;28;20110;-57
2024/01/28 04:25:00;;;;;;;10.30;8.17;;;;;;;;;;5056428;28;20450;-56
2024/01/28 04:27:26;;;;;;;15.67;9.20;;;;;;;;;;5055674;28;20040;-56
2024/01/28 04:29:52;;;;;;;13.27;9.57;;;;;;;;;;5056078;28;20359;-54
2024/01/28 04:32:18;;;;;;;13.87;8.40;;;;;;;;;;5055243;28;20515;-54
2024/01/28 04:34:44;;;;;;;12.83;10.20;;;;;;;;;;5056292;28;20025;-50
2024/01/28 04:37:10;;;;;;;10.23;8.33;;;;;;;;;;5055293;28;20076;-51
2024/01/28 04:39:36;;;;;;;10.05;8.02;;;;;;;;;;5055944;28;20025;-51
2024/01/28 04:42:02;;;;;;;14.83;9.53;;;;;;;;;;5055295;28;20024;-52
2024/01/28 04:44:28;;;;;;;15.50;9.40;;;;;;;;;;5055513;28;20520;-55
2024/01/28 04:46:57;;;;;;;15.23;9.90;;;;;;;;;;5055236;28;20021;-55
2024/01/28 04:49:23;;;;;;;13.80;9.13;;;;;;;;;;5055290;28;20363;-53
2024/01/28 04:51:50;;;;;;;14.77;10.07;;;;;;;;;;5055651;28;20028;-52
2024/01/28 04:54:16;;;;;;;12.43;8.87;;;;;;;;;;5054849;28;20028;-52
2024/01/28 04:56:42;;;;;;;8.93;8.00;;;;;;;;;;5055813;28;20037;-54
2024/01/28 04:59:08;;;;;;;14.07;8.77;;;;;;;;;;5054341;28;20430;-55
2024/01/28 05:01:34;;;;;;;10.13;8.47;;;;;;;;;;5055241;28;20032;-53
2024/01/28 05:04:04;;;;;;;12.37;9.00;;;;;;;;;;5055721;28;20029;-53
2024/01/28 05:06:36;;;;;;;9.43;8.05;;;;;;;;;;5054822;28;20032;-53
2024/01/28 05:09:03;;;;;;;9.07;7.03;;;;;;;;;;5055409;28;20025;-51
2024/01/28 05:11:30;;;;;;;12.93;8.65;;;;;;;;;;5054597;28;20028;-51
2024/01/28 05:13:56;;;;;;;12.87;10.67;;;;;;;;;;5054553;28;20100;-52
2024/01/28 05:16:22;;;;;;;12.50;8.50;;;;;;;;;;5054276;28;20460;-56
2024/01/28 05:18:48;;;;;;;13.83;10.77;;;;;;;;;;5055132;28;20020;-56
2024/01/28 05:21:14;;;;;;;11.60;9.33;;;;;;;;;;5054789;28;20116;-53
2024/01/28 05:23:40;;;;;;;18.23;10.70;;;;;;;;;;5054485;28;20407;-56
2024/01/28 05:26:07;;;;;;;9.82;8.40;;;;;;;;;;5054069;28;20021;-55
2024/01/28 05:28:33;;;;;;;12.30;9.57;;;;;;;;;;5054152;28;20482;-55
2024/01/28 05:30:59;;;;;;;16.93;10.90;;;;;;;;;;5054376;28;20086;-57
2024/01/28 05:33:25;;;;;;;15.57;10.43;;;;;;;;;;5054596;28;20033;-53
2024/01/28 05:35:51;;;;;;;13.07;9.73;;;;;;;;;;5054827;28;20025;-54
2024/01/28 05:38:17;;;;;;;12.83;9.80;;;;;;;;;;5054539;28;20033;-57
2024/01/28 05:40:43;;;;;;;14.13;10.40;;;;;;;;;;5054479;28;20152;-54
2024/01/28 05:43:08;;;;;;;11.80;8.90;;;;;;;;;;5054197;28;20493;-57
2024/01/28 05:45:34;;;;;;;13.67;9.23;;;;;;;;;;5054481;28;20033;-54
2024/01/28 05:48:03;;;;;;;12.53;9.67;;;;;;;;;;5054977;28;20382;-56
2024/01/28 05:50:29;;;;;;;15.47;10.50;;;;;;;;;;5054341;28;20021;-55
2024/01/28 05:52:55;;;;;;;12.17;10.37;;;;;;;;;;5054529;28;20029;-56
2024/01/28 05:55:21;;;;;;;11.77;9.30;;;;;;;;;;5054157;28;20045;-56
2024/01/28 05:57:47;;;;;;;11.73;9.70;;;;;;;;;;5054433;28;20557;-56
2024/01/28 06:00:14;;;;;;;15.57;8.43;;;;;;;;;;5054406;28;20025;-55
2024/01/28 06:02:40;;;;;;;9.10;8.03;;;;;;;;;;5054187;28;20029;-54
2024/01/28 06:05:06;;;;;;;11.17;9.00;;;;;;;;;;5054155;28;20032;-57
2024/01/28 06:07:32;;;;;;;13.10;10.17;;;;;;;;;;5054214;28;20029;-56
2024/01/28 06:09:58;;;;;;;12.27;9.40;;;;;;;;;;5053552;28;20488;-55
2024/01/28 06:12:24;;;;;;;14.63;9.80;;;;;;;;;;5053457;28;20120;-56
2024/01/28 06:14:50;;;;;;;14.20;10.10;;;;;;;;;;5053403;28;20163;-55
2024/01/28 06:17:16;;;;;;;11.53;8.30;;;;;;;;;;5053650;28;20040;-56
2024/01/28 06:19:44;;;;;;;17.60;10.27;;;;;;;;;;5054632;28;20017;-56
2024/01/28 06:22:10;;;;;;;13.10;9.70;;;;;;;;;;5053924;28;20082;-57
2024/01/28 06:24:36;;;;;;;13.53;9.00;;;;;;;;;;5053413;28;20017;-55
2024/01/28 06:27:02;;;;;;;11.97;9.10;;;;;;;;;;5054165;28;20356;-55
2024/01/28 06:29:28;;;;;;;15.50;9.87;;;;;;;;;;5053658;28;20379;-56
2024/01/28 06:31:54;;;;;;;14.57;9.83;;;;;;;;;;5053848;28;20398;-55
2024/01/28 06:34:20;;;;;;;17.80;10.83;;;;;;;;;;5053607;28;20029;-54
2024/01/28 06:36:46;;;;;;;11.10;9.53;;;;;;;;;;5053762;28;20063;-56
2024/01/28 06:39:12;;;;;;;12.63;9.77;;;;;;;;;;5054418;28;20033;-50
2024/01/28 06:41:41;;;;;;;17.17;9.63;;;;;;;;;;5053569;28;20074;-55
2024/01/28 06:44:07;;;;;;;14.90;9.80;;;;;;;;;;5053459;28;20096;-51
2024/01/28 06:46:33;;;;;;;13.53;11.53;;;;;;;;;;5053577;28;20040;-54
2024/01/28 06:49:00;;;;;;;13.73;9.17;;;;;;;;;;5054060;28;20029;-54
2024/01/28 06:51:26;;;;;;;13.00;9.23;;;;;;;;;;5053494;28;20029;-52
2024/01/28 06:53:52;;;;;;;10.27;9.27;;;;;;;;;;5054209;28;20431;-54
2024/01/28 06:56:18;;;;;;;11.13;9.77;;;;;;;;;;5053986;28;20083;-51
2024/01/28 06:58:44;;;;;;;17.03;10.47;;;;;;;;;;5053964;28;20024;-53
2024/01/28 07:01:12;;;;;;;13.27;8.87;;;;;;;;;;5053878;28;20402;-56
2024/01/28 07:03:38;;;;;;;14.40;9.70;;;;;;;;;;5053083;28;20391;-55
2024/01/28 07:06:04;;;;;;;11.10;9.23;;;;;;;;;;5053378;28;20091;-52
2024/01/28 07:08:30;;;;;;;14.93;9.20;;;;;;;;;;5053906;28;20025;-53
2024/01/28 07:10:58;;;;;;;15.77;9.73;;;;;;;;;;5053500;28;20083;-51
2024/01/28 07:13:24;;;;;;;10.33;9.23;;;;;;;;;;5053098;28;20621;-51
2024/01/28 07:15:51;;;;;;;15.53;10.40;;;;;;;;;;5053174;28;20113;-53
2024/01/28 07:18:18;;;;;;;13.60;10.43;;;;;;;;;;5053388;28;20055;-52
2024/01/28 07:20:43;;;;;;;17.40;10.87;;;;;;;;;;5053109;28;20029;-55
2024/01/28 07:23:09;;;;;;;18.27;10.43;;;;;;;;;;5053395;28;20089;-53
2024/01/28 07:25:35;;;;;;;11.87;9.60;;;;;;;;;;5053131;28;20419;-53
2024/01/28 07:28:01;;;;;;;9.80;8.50;;;;;;;;;;5053305;28;20033;-56
2024/01/28 07:30:30;;;;;;;11.43;9.83;;;;;;;;;;5053873;28;20096;-54
2024/01/28 07:32:56;;;;;;;12.33;9.70;;;;;;;;;;5053241;28;20065;-52
2024/01/28 07:35:22;;;;;;;12.10;10.07;;;;;;;;;;5054959;28;20118;-54
2024/01/28 07:37:48;;;;;;;13.97;9.47;;;;;;;;;;5057137;28;20025;-56
2024/01/28 07:40:14;;;;;;;11.43;9.87;;;;;;;;;;5057038;28;20037;-52
2024/01/28 07:42:40;;;;;;;13.33;8.77;;;;;;;;;;5056524;28;20456;-57
2024/01/28 07:45:07;;;;;;;11.43;10.10;;;;;;;;;;5056953;28;20116;-55
2024/01/28 07:47:33;;;;;;;15.67;10.93;;;;;;;;;;5056417;28;20033;-56
2024/01/28 07:49:59;;;;;;;12.13;10.87;;;;;;;;;;5056350;28;20033;-56
2024/01/28 07:52:25;;;;;;;17.60;11.00;;;;;;;;;;5056309;28;20413;-56
2024/01/28 07:54:51;;;;;;;22.00;11.83;;;;;;;;;;5056374;28;20040;-55
2024/01/28 07:57:17;;;;;;;12.37;9.97;;;;;;;;;;5056156;28;20040;-55
2024/01/28 07:59:43;;;;;;;13.97;11.27;;;;;;;;;;5056749;28;20065;-54
2024/01/28 08:02:09;;;;;;;19.77;11.50;;;;;;;;;;5056190;28;20024;-53
2024/01/28 08:04:35;;;;;;;13.63;10.43;;;;;;;;;;5056616;28;20025;-54
2024/01/28 08:07:01;;;;;;;12.67;9.80;;;;;;;;;;5056573;28;20033;-55
2024/01/28 08:09:31;;;;;;;14.87;11.47;;;;;;;;;;5056395;28;20036;-52
2024/01/28 08:11:57;;;;;;;17.53;11.57;;;;;;;;;;5055925;28;20024;-52
2024/01/28 08:14:27;;;;;;;13.10;10.68;;;;;;;;;;5055735;28;20148;-54
2024/01/28 08:16:53;;;;;;;8.65;7.80;;;;;;;;;;5055816;28;20033;-52
2024/01/28 08:19:19;;;;;;;12.50;10.80;;;;;;;;;;5056353;28;20033;-54
2024/01/28 08:21:45;;;;;;;15.43;12.23;;;;;;;;;;5055953;28;20450;-55
2024/01/28 08:24:11;;;;;;;15.67;11.30;;;;;;;;;;5055709;28;20036;-53
2024/01/28 08:26:37;;;;;;;17.37;11.70;;;;;;;;;;5056144;28;20036;-56
2024/01/28 08:29:03;;;;;;;16.03;10.47;;;;;;;;;;5056174;28;20112;-55
2024/01/28 08:31:30;;;;;;;13.45;9.90;;;;;;;;;;5056126;28;20032;-54
2024/01/28 08:33:56;;;;;;;15.73;11.23;;;;;;;;;;5055484;28;20117;-56
2024/01/28 08:36:22;;;;;;;13.07;11.67;;;;;;;;;;5056260;28;20052;-55
2024/01/28 08:38:48;;;;;;;18.83;11.10;;;;;;;;;;5055589;28;20455;-51
2024/01/28 08:41:14;;;;;;;20.30;11.20;;;;;;;;;;5055730;28;20111;-52
2024/01/28 08:43:40;;;;;;;12.70;10.07;;;;;;;;;;5055336;28;20029;-53
2024/01/28 08:46:06;;;;;;;13.00;10.77;;;;;;;;;;5054756;28;20070;-54
2024/01/28 08:48:32;;;;;;;16.00;11.23;;;;;;;;;;5055855;28;20074;-57
2024/01/28 08:50:58;;;;;;;16.35;11.20;;;;;;;;;;5055238;28;20112;-56
2024/01/28 08:53:24;;;;;;;11.53;10.33;;;;;;;;;;5055678;28;20366;-54
2024/01/28 08:55:50;;;;;;;12.90;9.60;;;;;;;;;;5055346;28;20052;-55
2024/01/28 08:58:16;;;;;;;13.35;9.70;;;;;;;;;;5055582;28;20025;-52
2024/01/28 09:00:42;;;;;;;13.27;9.35;;;;;;;;;;5054693;28;20124;-51
2024/01/28 09:03:10;;;;;;;14.33;11.80;;;;;;;;;;5054933;28;20049;-54
2024/01/28 09:05:36;;;;;;;18.00;14.60;;;;;;;;;;5054575;28;20120;-53
2024/01/28 09:08:03;;;;;;;16.13;13.02;;;;;;;;;;5054800;28;20044;-50
2024/01/28 09:10:28;;;;;;;13.43;11.77;;;;;;;;;;5055224;28;20032;-53
2024/01/28 09:12:54;;;;;;;14.25;11.73;;;;;;;;;;5054536;28;20029;-53
2024/01/28 09:15:21;;;;;;;11.70;9.82;;;;;;;;;;5054934;28;20025;-56
2024/01/28 09:17:47;;;;;;;13.23;9.10;;;;;;;;;;5054276;28;20075;-56
2024/01/28 09:20:12;;;;;;;14.35;11.40;;;;;;;;;;5055145;28;20029;-57
2024/01/28 09:22:39;;;;;;;11.43;10.23;;;;;;;;;;5054465;28;20033;-55
2024/01/28 09:25:05;;;;;;;18.83;11.73;;;;;;;;;;5055277;28;20025;-56
2024/01/28 09:27:31;;;;;;;13.68;12.18;;;;;;;;;;5054289;28;20060;-53
2024/01/28 09:29:57;;;;;;;14.00;11.52;;;;;;;;;;5054529;28;20033;-52
2024/01/28 09:32:27;;;;;;;15.32;10.13;;;;;;;;;;5054445;28;20025;-54
2024/01/28 09:34:53;;;;;;;27.23;11.07;;;;;;;;;;5054343;28;20029;-56
2024/01/28 09:37:19;;;;;;;16.92;10.07;;;;;;;;;;5054430;28;20119;-56
2024/01/28 09:39:45;;;;;;;17.35;11.60;;;;;;;;;;5054362;28;20538;-55
2024/01/28 09:42:21;;;;;;;13.32;10.15;;;;;;;;;;5054221;28;20029;-57
2024/01/28 09:44:49;;;;;;;11.52;10.32;;;;;;;;;;5054419;28;20513;-56
2024/01/28 09:47:14;;;;;;;13.73;10.63;;;;;;;;;;5054934;28;20037;-57
2024/01/28 09:49:44;;;;;;;13.30;11.65;;;;;;;;;;5054535;28;20070;-56
2024/01/28 09:52:11;;;;;;;17.27;11.25;;;;;;;;;;5054058;28;20368;-58
2024/01/28 09:54:37;;;;;;;12.73;9.73;;;;;;;;;;5054032;28;20488;-56
2024/01/28 09:57:05;;;;;;;13.73;9.15;;;;;;;;;;5053141;28;20037;-58
2024/01/28 09:59:32;;;;;;;12.50;10.13;;;;;;;;;;5054294;28;20443;-57
2024/01/28 10:01:58;;;;;;;11.52;9.60;;;;;;;;;;5054451;28;20029;-58
2024/01/28 10:04:24;;;;;;;17.15;10.27;;;;;;;;;;5054087;28;20025;-57
2024/01/28 10:06:50;;;;;;;12.48;9.43;;;;;;;;;;5053832;28;20039;-54
2024/01/28 10:09:16;;;;;;;10.55;9.45;;;;;;;;;;5054419;28;20029;-56
2024/01/28 10:11:42;;;;;;;12.00;10.07;;;;;;;;;;5054542;28;20032;-56
2024/01/28 10:14:08;;;;;;;10.82;9.63;;;;;;;;;;5053876;28;20036;-55
2024/01/28 10:16:34;;;;;;;12.02;8.77;;;;;;;;;;5053606;28;20048;-54
2024/01/28 10:19:00;;;;;;;11.30;9.93;;;;;;;;;;5054076;28;20025;-57
2024/01/28 10:21:26;;;;;;;12.10;8.70;;;;;;;;;;5054236;28;20060;-56
2024/01/28 10:23:53;;;;;;;10.85;8.95;;;;;;;;;;5053669;28;20029;-55
2024/01/28 10:26:20;;;;;;;14.18;9.63;;;;;;;;;;5053342;28;20502;-55
2024/01/28 10:28:46;;;;;;;10.18;8.25;;;;;;;;;;5053833;28;20029;-56
2024/01/28 10:31:12;;;;;;;10.38;8.32;;;;;;;;;;5054043;28;20082;-56
2024/01/28 10:33:38;;;;;;;9.85;8.85;;;;;;;;;;5053455;28;20029;-55
2024/01/28 10:36:06;;;;;;;8.55;7.18;;;;;;;;;;5053689;28;20039;-56
2024/01/28 10:38:32;;;;;;;9.82;7.05;;;;;;;;;;5054097;28;20344;-58
2024/01/28 10:41:01;;;;;;;8.02;7.20;;;;;;;;;;5053379;28;20352;-57
2024/01/28 10:43:27;;;;;;;8.70;6.50;;;;;;;;;;5053400;28;20029;-57
2024/01/28 10:45:55;;;;;;;10.57;7.07;;;;;;;;;;5053740;28;20021;-56
2024/01/28 10:48:23;;;;;;;8.75;7.13;;;;;;;;;;5054322;28;20167;-55
2024/01/28 10:50:50;;;;;;;8.50;6.68;;;;;;;;;;5053118;28;20028;-58
2024/01/28 10:53:18;;;;;;;7.22;6.15;;;;;;;;;;5053597;28;20033;-57
2024/01/28 10:55:45;;;;;;;7.57;5.88;;;;;;;;;;5053569;28;20051;-54
2024/01/28 10:58:12;;;;;;;9.15;5.28;;;;;;;;;;5053849;28;20033;-55
2024/01/28 11:00:38;;;;;;;6.80;4.53;;;;;;;;;;5053692;28;20029;-58
2024/01/28 11:03:07;;;;;;;4.43;3.72;;;;;;;;;;5053134;28;20534;-57
2024/01/28 11:05:33;;;;;;;5.13;4.35;;;;;;;;;;5052790;28;20474;-57
2024/01/28 11:08:01;;;;;;;5.28;3.83;;;;;;;;;;5052989;28;20032;-57
2024/01/28 11:10:34;;;;;;;6.68;4.93;;;;;;;;;;5056974;28;20040;-58
2024/01/28 11:13:01;;;;;;;5.15;4.20;;;;;;;;;;5056657;28;20546;-56
2024/01/28 11:15:30;;;;;;;6.65;4.50;;;;;;;;;;5057333;28;20025;-57
2024/01/28 11:17:56;;;;;;;5.13;3.92;;;;;;;;;;5057416;28;20037;-58
2024/01/28 11:20:23;;;;;;;6.35;4.00;;;;;;;;;;5056901;28;20044;-57
2024/01/28 11:22:52;;;;;;;4.88;3.63;;;;;;;;;;5057165;28;20051;-54
2024/01/28 11:25:22;;;;;;;5.80;4.65;;;;;;;;;;5056684;28;20033;-57
2024/01/28 11:27:48;;;;;;;5.93;5.33;;;;;;;;;;5056798;28;20033;-57
2024/01/28 11:30:14;;;;;;;6.88;4.88;;;;;;;;;;5056641;28;20031;-57
2024/01/28 11:32:41;;;;;;;6.35;4.35;;;;;;;;;;5056699;28;20036;-57
2024/01/28 11:35:08;;;;;;;8.15;5.35;;;;;;;;;;5056627;28;20029;-58
2024/01/28 11:37:37;;;;;;;5.05;4.07;;;;;;;;;;5057176;28;20033;-55
2024/01/28 11:40:07;;;;;;;5.83;3.77;;;;;;;;;;5057139;28;20087;-56
2024/01/28 11:42:33;;;;;;;6.95;4.85;;;;;;;;;;5056727;28;20029;-57
2024/01/28 11:45:00;;;;;;;6.85;5.22;;;;;;;;;;5056376;28;20048;-58
2024/01/28 11:47:26;;;;;;;4.75;3.88;;;;;;;;;;5056603;28;20033;-56
2024/01/28 11:49:52;;;;;;;5.40;3.85;;;;;;;;;;5056093;28;20021;-56
2024/01/28 11:52:18;;;;;;;4.63;3.88;;;;;;;;;;5056882;28;20431;-54
2024/01/28 11:54:47;;;;;;;7.28;4.10;;;;;;;;;;5055988;28;20052;-56
2024/01/28 11:57:13;;;;;;;5.30;4.15;;;;;;;;;;5056540;28;20037;-56
2024/01/28 11:59:39;;;;;;;5.90;4.45;;;;;;;;;;5057015;28;20025;-57
2024/01/28 12:02:06;;;;;;;6.28;4.80;;;;;;;;;;5056327;28;20171;-54
2024/01/28 12:04:32;;;;;;;5.53;4.72;;;;;;;;;;5056108;28;20360;-56
2024/01/28 12:06:58;;;;;;;6.65;4.07;;;;;;;;;;5056530;28;20036;-57
2024/01/28 12:09:24;;;;;;;5.40;4.10;;;;;;;;;;5056272;28;20091;-56
2024/01/28 12:11:52;;;;;;;5.20;4.40;;;;;;;;;;5055879;28;20025;-57
2024/01/28 12:14:18;;;;;;;4.10;3.30;;;;;;;;;;5055934;28;20029;-56
2024/01/28 12:16:44;;;;;;;6.70;3.22;;;;;;;;;;5055760;28;20398;-57
2024/01/28 12:19:13;;;;;;;4.63;3.25;;;;;;;;;;5056712;28;20029;-57
2024/01/28 12:21:40;;;;;;;4.63;3.28;;;;;;;;;;5054952;28;20451;-57
2024/01/28 12:24:09;;;;;;;4.95;3.38;;;;;;;;;;5055749;28;20037;-57
2024/01/28 12:26:35;;;;;;;4.35;2.92;;;;;;;;;;5055969;28;20052;-55
2024/01/28 12:29:02;;;;;;;5.93;2.90;;;;;;;;;;5055611;28;20063;-56
2024/01/28 12:31:28;;;;;;;5.40;3.17;;;;;;;;;;5055230;28;20486;-56
2024/01/28 12:33:54;;;;;;;4.88;3.05;;;;;;;;;;5055382;28;20036;-56
2024/01/28 12:36:20;;;;;;;4.80;3.47;;;;;;;;;;5055356;28;20408;-55
2024/01/28 12:38:47;;;;;;;3.83;3.03;;;;;;;;;;5056029;28;20071;-55
2024/01/28 12:41:13;;;;;;;4.53;3.72;;;;;;;;;;5055615;28;20040;-57
2024/01/28 12:43:40;;;;;;;5.05;3.55;;;;;;;;;;5055361;28;20025;-56
2024/01/28 12:46:06;;;;;;;5.45;3.97;;;;;;;;;;5055254;28;20029;-56
2024/01/28 12:48:32;;;;;;;4.95;4.15;;;;;;;;;;5055569;28;20033;-54
2024/01/28 12:50:58;;;;;;;5.35;3.30;;;;;;;;;;5054913;28;20025;-54
2024/01/28 12:53:24;;;;;;;4.40;3.22;;;;;;;;;;5055191;28;20108;-57
2024/01/28 12:55:50;;;;;;;2.83;2.40;;;;;;;;;;5055093;28;20073;-57
2024/01/28 12:58:16;;;;;;;4.00;2.75;;;;;;;;;;5055574;28;20064;-57
2024/01/28 13:00:43;;;;;;;4.40;3.13;;;;;;;;;;5055033;28;20076;-55
2024/01/28 13:03:09;;;;;;;4.78;3.08;;;;;;;;;;5055009;28;20145;-57
2024/01/28 13:05:35;;;;;;;4.32;3.08;;;;;;;;;;5055479;28;20036;-57
2024/01/28 13:08:01;;;;;;;8.07;4.13;;;;;;;;;;5055242;28;20028;-57
2024/01/28 13:10:27;;;;;;;5.05;3.42;;;;;;;;;;5054820;28;20032;-57
2024/01/28 13:12:54;;;;;;;5.50;4.13;;;;;;;;;;5054855;28;20033;-57
2024/01/28 13:15:20;;;;;;;5.45;3.50;;;;;;;;;;5054653;28;20033;-55
2024/01/28 13:17:46;;;;;;;4.07;3.20;;;;;;;;;;5054658;28;20044;-57
2024/01/28 13:20:12;;;;;;;4.53;3.22;;;;;;;;;;5054590;28;20056;-55
2024/01/28 13:22:41;;;;;;;5.38;3.15;;;;;;;;;;5054486;28;20029;-56
2024/01/28 13:25:07;;;;;;;3.75;2.33;;;;;;;;;;5054518;28;20135;-57
2024/01/28 13:27:33;;;;;;;4.38;2.88;;;;;;;;;;5055307;28;20088;-57
2024/01/28 13:30:00;;;;;;;2.50;2.30;;;;;;;;;;5054550;28;20383;-56
2024/01/28 13:32:27;;;;;;;4.10;2.78;;;;;;;;;;5054327;28;20064;-57
2024/01/28 13:34:53;;;;;;;4.60;2.58;;;;;;;;;;5054310;28;20028;-56
2024/01/28 13:37:19;;;;;;;3.90;2.63;;;;;;;;;;5054308;28;20534;-57
2024/01/28 13:39:44;;;;;;;4.47;3.15;;;;;;;;;;5054011;28;20055;-58
2024/01/28 13:42:10;;;;;;;4.13;2.53;;;;;;;;;;5054267;28;20036;-57
2024/01/28 13:44:36;;;;;;;4.15;1.80;;;;;;;;;;5054168;28;20036;-57
2024/01/28 13:47:03;;;;;;;2.75;1.85;;;;;;;;;;5054914;28;20099;-56
2024/01/28 13:49:29;;;;;;;3.17;1.60;;;;;;;;;;5054179;28;20025;-57
2024/01/28 13:51:55;;;;;;;4.00;2.08;;;;;;;;;;5054422;28;20033;-57
2024/01/28 13:54:21;;;;;;;4.20;1.67;;;;;;;;;;5053924;28;20136;-57
2024/01/28 13:56:47;;;;;;;4.88;1.70;;;;;;;;;;5054743;28;20239;-58
2024/01/28 13:59:13;;;;;;;3.75;1.65;;;;;;;;;;5054603;28;20029;-57
2024/01/28 14:01:40;;;;;;;4.22;2.30;;;;;;;;;;5054795;28;20028;-57
2024/01/28 14:04:06;;;;;;;2.72;1.85;;;;;;;;;;5054223;28;20434;-57
2024/01/28 14:06:32;;;;;;;2.45;1.70;;;;;;;;;;5054475;28;20108;-57
2024/01/28 14:08:58;;;;;;;3.05;1.83;;;;;;;;;;5054488;28;20029;-58
2024/01/28 14:11:24;;;;;;;3.35;1.88;;;;;;;;;;5054555;28;20424;-57
2024/01/28 14:13:50;;;;;;;2.60;1.77;;;;;;;;;;5053726;28;20056;-57
2024/01/28 14:16:16;;;;;;;3.90;2.00;;;;;;;;;;5054525;28;20388;-57
2024/01/28 14:18:43;;;;;;;2.88;1.88;;;;;;;;;;5054331;28;20142;-57
2024/01/28 14:21:09;;;;;;;2.83;1.33;;;;;;;;;;5053642;28;20478;-57
2024/01/28 14:23:35;;;;;;;1.63;1.10;;;;;;;;;;5054176;28;20025;-57
2024/01/28 14:26:01;;;;;;;2.20;1.55;;;;;;;;;;5053634;28;20025;-57
2024/01/28 14:28:28;;;;;;;3.70;1.65;;;;;;;;;;5053948;28;20040;-57